sensor_id;sensor_type;location;lat;lon;timestamp;P1;durP1;ratioP1;P2;durP2;ratioP2
8474;SDS011;4274;52.012;8.448;2023-06-14T00:01:17;52.50;;;3.17;;
8474;SDS011;4274;52.012;8.448;2023-06-14T00:03:45;50.30;;;3.33;;
8474;SDS011;4274;52.012;8.448;2023-06-14T00:06:12;48.10;;;4.00;;
8474;SDS011;4274;52.012;8.448;2023-06-14T00:08:38;47.40;;;3.20;;
8474;SDS011;4274;52.012;8.448;2023-06-14T00:11:04;48.20;;;3.30;;
8474;SDS011;4274;52.012;8.448;2023-06-14T00:13:30;49.77;;;3.73;;
8474;SDS011;4274;52.012;8.448;2023-06-14T00:15:56;50.17;;;3.40;;
8474;SDS011;4274;52.012;8.448;2023-06-14T00:18:21;46.80;;;3.20;;
8474;SDS011;4274;52.012;8.448;2023-06-14T00:20:51;46.57;;;3.57;;
8474;SDS011;4274;52.012;8.448;2023-06-14T00:23:17;47.43;;;3.50;;
8474;SDS011;4274;52.012;8.448;2023-06-14T00:25:43;48.70;;;3.50;;
8474;SDS011;4274;52.012;8.448;2023-06-14T00:28:08;50.80;;;3.40;;
8474;SDS011;4274;52.012;8.448;2023-06-14T00:30:34;48.73;;;3.27;;
8474;SDS011;4274;52.012;8.448;2023-06-14T00:32:59;49.90;;;4.00;;
8474;SDS011;4274;52.012;8.448;2023-06-14T00:35:25;49.10;;;3.57;;
8474;SDS011;4274;52.012;8.448;2023-06-14T00:37:51;48.13;;;3.30;;
8474;SDS011;4274;52.012;8.448;2023-06-14T00:40:16;50.70;;;3.60;;
8474;SDS011;4274;52.012;8.448;2023-06-14T00:42:42;47.20;;;3.90;;
8474;SDS011;4274;52.012;8.448;2023-06-14T00:45:08;51.80;;;3.43;;
8474;SDS011;4274;52.012;8.448;2023-06-14T00:47:35;48.07;;;3.73;;
8474;SDS011;4274;52.012;8.448;2023-06-14T00:50:02;48.83;;;3.90;;
8474;SDS011;4274;52.012;8.448;2023-06-14T00:52:30;51.80;;;3.57;;
8474;SDS011;4274;52.012;8.448;2023-06-14T00:54:57;49.30;;;3.33;;
8474;SDS011;4274;52.012;8.448;2023-06-14T00:57:23;57.30;;;3.87;;
8474;SDS011;4274;52.012;8.448;2023-06-14T00:59:49;48.97;;;3.50;;
8474;SDS011;4274;52.012;8.448;2023-06-14T01:02:15;48.13;;;3.60;;
8474;SDS011;4274;52.012;8.448;2023-06-14T01:04:43;47.40;;;3.40;;
8474;SDS011;4274;52.012;8.448;2023-06-14T01:15:06;47.80;;;3.50;;
8474;SDS011;4274;52.012;8.448;2023-06-14T01:17:32;47.17;;;3.63;;
8474;SDS011;4274;52.012;8.448;2023-06-14T01:20:01;50.07;;;3.77;;
8474;SDS011;4274;52.012;8.448;2023-06-14T01:22:28;46.50;;;3.50;;
8474;SDS011;4274;52.012;8.448;2023-06-14T01:24:54;48.17;;;3.63;;
8474;SDS011;4274;52.012;8.448;2023-06-14T01:27:23;49.60;;;3.73;;
8474;SDS011;4274;52.012;8.448;2023-06-14T01:29:53;47.40;;;3.70;;
8474;SDS011;4274;52.012;8.448;2023-06-14T01:32:21;46.90;;;3.03;;
8474;SDS011;4274;52.012;8.448;2023-06-14T01:34:49;50.27;;;3.90;;
8474;SDS011;4274;52.012;8.448;2023-06-14T01:37:15;46.13;;;3.17;;
8474;SDS011;4274;52.012;8.448;2023-06-14T01:39:42;53.60;;;4.00;;
8474;SDS011;4274;52.012;8.448;2023-06-14T01:42:08;47.37;;;4.03;;
8474;SDS011;4274;52.012;8.448;2023-06-14T01:44:35;45.80;;;3.40;;
8474;SDS011;4274;52.012;8.448;2023-06-14T01:47:02;50.83;;;3.30;;
8474;SDS011;4274;52.012;8.448;2023-06-14T01:49:28;46.57;;;3.63;;
8474;SDS011;4274;52.012;8.448;2023-06-14T01:51:53;47.10;;;3.83;;
8474;SDS011;4274;52.012;8.448;2023-06-14T01:54:19;48.60;;;3.50;;
8474;SDS011;4274;52.012;8.448;2023-06-14T01:56:44;53.40;;;3.33;;
8474;SDS011;4274;52.012;8.448;2023-06-14T01:59:10;47.20;;;3.43;;
8474;SDS011;4274;52.012;8.448;2023-06-14T02:01:35;47.30;;;3.53;;
8474;SDS011;4274;52.012;8.448;2023-06-14T02:04:01;51.13;;;3.53;;
8474;SDS011;4274;52.012;8.448;2023-06-14T02:06:27;46.50;;;3.47;;
8474;SDS011;4274;52.012;8.448;2023-06-14T02:08:53;51.73;;;3.73;;
8474;SDS011;4274;52.012;8.448;2023-06-14T02:11:18;46.50;;;3.13;;
8474;SDS011;4274;52.012;8.448;2023-06-14T02:13:44;46.40;;;3.30;;
8474;SDS011;4274;52.012;8.448;2023-06-14T02:16:10;48.23;;;3.70;;
8474;SDS011;4274;52.012;8.448;2023-06-14T02:18:36;48.00;;;3.40;;
8474;SDS011;4274;52.012;8.448;2023-06-14T02:21:01;48.07;;;3.90;;
8474;SDS011;4274;52.012;8.448;2023-06-14T02:23:27;47.70;;;3.83;;
8474;SDS011;4274;52.012;8.448;2023-06-14T02:25:52;46.90;;;3.97;;
8474;SDS011;4274;52.012;8.448;2023-06-14T02:28:18;45.97;;;3.67;;
8474;SDS011;4274;52.012;8.448;2023-06-14T02:30:44;45.97;;;3.40;;
8474;SDS011;4274;52.012;8.448;2023-06-14T02:33:09;46.60;;;3.40;;
8474;SDS011;4274;52.012;8.448;2023-06-14T02:35:37;48.13;;;3.10;;
8474;SDS011;4274;52.012;8.448;2023-06-14T02:38:03;50.43;;;3.40;;
8474;SDS011;4274;52.012;8.448;2023-06-14T02:40:29;51.77;;;3.13;;
8474;SDS011;4274;52.012;8.448;2023-06-14T02:42:55;46.90;;;3.73;;
8474;SDS011;4274;52.012;8.448;2023-06-14T02:45:20;49.33;;;3.37;;
8474;SDS011;4274;52.012;8.448;2023-06-14T02:47:46;50.53;;;3.60;;
8474;SDS011;4274;52.012;8.448;2023-06-14T02:50:11;47.27;;;3.87;;
8474;SDS011;4274;52.012;8.448;2023-06-14T02:52:37;46.27;;;3.80;;
8474;SDS011;4274;52.012;8.448;2023-06-14T02:55:03;52.97;;;3.83;;
8474;SDS011;4274;52.012;8.448;2023-06-14T02:57:29;46.10;;;3.60;;
8474;SDS011;4274;52.012;8.448;2023-06-14T02:59:55;51.47;;;4.20;;
8474;SDS011;4274;52.012;8.448;2023-06-14T03:02:20;52.50;;;4.50;;
8474;SDS011;4274;52.012;8.448;2023-06-14T03:04:46;59.00;;;3.77;;
8474;SDS011;4274;52.012;8.448;2023-06-14T03:07:11;52.37;;;3.93;;
8474;SDS011;4274;52.012;8.448;2023-06-14T03:09:38;52.07;;;3.57;;
8474;SDS011;4274;52.012;8.448;2023-06-14T03:12:05;48.13;;;4.27;;
8474;SDS011;4274;52.012;8.448;2023-06-14T03:14:34;52.23;;;4.33;;
8474;SDS011;4274;52.012;8.448;2023-06-14T03:17:00;48.27;;;3.60;;
8474;SDS011;4274;52.012;8.448;2023-06-14T03:19:26;45.80;;;3.57;;
8474;SDS011;4274;52.012;8.448;2023-06-14T03:21:52;48.10;;;3.50;;
8474;SDS011;4274;52.012;8.448;2023-06-14T03:24:18;48.50;;;3.47;;
8474;SDS011;4274;52.012;8.448;2023-06-14T03:26:44;66.33;;;4.00;;
8474;SDS011;4274;52.012;8.448;2023-06-14T03:29:10;46.50;;;3.83;;
8474;SDS011;4274;52.012;8.448;2023-06-14T03:31:36;45.77;;;3.57;;
8474;SDS011;4274;52.012;8.448;2023-06-14T03:34:01;51.10;;;3.30;;
8474;SDS011;4274;52.012;8.448;2023-06-14T03:36:27;48.53;;;3.83;;
8474;SDS011;4274;52.012;8.448;2023-06-14T03:38:53;50.57;;;4.47;;
8474;SDS011;4274;52.012;8.448;2023-06-14T03:41:20;48.80;;;3.47;;
8474;SDS011;4274;52.012;8.448;2023-06-14T03:43:45;50.33;;;3.50;;
8474;SDS011;4274;52.012;8.448;2023-06-14T03:46:11;47.30;;;3.87;;
8474;SDS011;4274;52.012;8.448;2023-06-14T03:48:36;50.27;;;3.80;;
8474;SDS011;4274;52.012;8.448;2023-06-14T03:51:03;46.10;;;3.60;;
8474;SDS011;4274;52.012;8.448;2023-06-14T03:53:29;46.90;;;4.00;;
8474;SDS011;4274;52.012;8.448;2023-06-14T03:55:55;47.00;;;3.70;;
8474;SDS011;4274;52.012;8.448;2023-06-14T03:58:22;48.33;;;4.20;;
8474;SDS011;4274;52.012;8.448;2023-06-14T04:00:47;47.17;;;3.57;;
8474;SDS011;4274;52.012;8.448;2023-06-14T04:03:13;45.70;;;3.47;;
8474;SDS011;4274;52.012;8.448;2023-06-14T04:05:40;46.97;;;3.53;;
8474;SDS011;4274;52.012;8.448;2023-06-14T04:08:07;45.83;;;3.70;;
8474;SDS011;4274;52.012;8.448;2023-06-14T04:10:34;52.93;;;3.67;;
8474;SDS011;4274;52.012;8.448;2023-06-14T04:12:59;47.53;;;3.93;;
8474;SDS011;4274;52.012;8.448;2023-06-14T04:15:25;47.37;;;3.80;;
8474;SDS011;4274;52.012;8.448;2023-06-14T04:17:53;45.37;;;3.80;;
8474;SDS011;4274;52.012;8.448;2023-06-14T04:20:22;45.53;;;4.00;;
8474;SDS011;4274;52.012;8.448;2023-06-14T04:22:49;46.20;;;3.60;;
8474;SDS011;4274;52.012;8.448;2023-06-14T04:25:15;47.73;;;3.40;;
8474;SDS011;4274;52.012;8.448;2023-06-14T04:27:41;47.83;;;3.43;;
8474;SDS011;4274;52.012;8.448;2023-06-14T04:30:07;47.87;;;3.57;;
8474;SDS011;4274;52.012;8.448;2023-06-14T04:32:33;45.93;;;3.20;;
8474;SDS011;4274;52.012;8.448;2023-06-14T04:35:04;50.58;;;3.03;;
8474;SDS011;4274;52.012;8.448;2023-06-14T04:37:34;47.67;;;3.73;;
8474;SDS011;4274;52.012;8.448;2023-06-14T04:40:00;49.63;;;3.60;;
8474;SDS011;4274;52.012;8.448;2023-06-14T04:42:25;57.87;;;3.10;;
8474;SDS011;4274;52.012;8.448;2023-06-14T04:44:56;46.20;;;3.27;;
8474;SDS011;4274;52.012;8.448;2023-06-14T04:47:22;46.90;;;3.40;;
8474;SDS011;4274;52.012;8.448;2023-06-14T04:49:49;49.20;;;3.90;;
8474;SDS011;4274;52.012;8.448;2023-06-14T04:52:18;46.17;;;3.70;;
8474;SDS011;4274;52.012;8.448;2023-06-14T04:54:45;46.57;;;2.80;;
8474;SDS011;4274;52.012;8.448;2023-06-14T04:57:11;48.10;;;3.87;;
8474;SDS011;4274;52.012;8.448;2023-06-14T04:59:39;46.40;;;3.60;;
8474;SDS011;4274;52.012;8.448;2023-06-14T05:02:05;45.37;;;3.13;;
8474;SDS011;4274;52.012;8.448;2023-06-14T05:04:31;47.10;;;3.60;;
8474;SDS011;4274;52.012;8.448;2023-06-14T05:06:57;47.07;;;3.53;;
8474;SDS011;4274;52.012;8.448;2023-06-14T05:09:23;45.50;;;3.30;;
8474;SDS011;4274;52.012;8.448;2023-06-14T05:11:48;49.63;;;3.23;;
8474;SDS011;4274;52.012;8.448;2023-06-14T05:14:15;47.27;;;3.97;;
8474;SDS011;4274;52.012;8.448;2023-06-14T05:16:41;48.40;;;3.20;;
8474;SDS011;4274;52.012;8.448;2023-06-14T05:19:07;47.37;;;3.67;;
8474;SDS011;4274;52.012;8.448;2023-06-14T05:21:33;49.20;;;3.73;;
8474;SDS011;4274;52.012;8.448;2023-06-14T05:24:00;46.40;;;3.80;;
8474;SDS011;4274;52.012;8.448;2023-06-14T05:26:26;48.40;;;3.77;;
8474;SDS011;4274;52.012;8.448;2023-06-14T05:28:56;47.30;;;3.40;;
8474;SDS011;4274;52.012;8.448;2023-06-14T05:31:23;47.07;;;4.03;;
8474;SDS011;4274;52.012;8.448;2023-06-14T05:33:50;48.60;;;2.90;;
8474;SDS011;4274;52.012;8.448;2023-06-14T05:36:16;47.97;;;3.20;;
8474;SDS011;4274;52.012;8.448;2023-06-14T05:38:42;46.37;;;3.30;;
8474;SDS011;4274;52.012;8.448;2023-06-14T05:41:07;46.23;;;2.93;;
8474;SDS011;4274;52.012;8.448;2023-06-14T05:43:33;45.27;;;3.00;;
8474;SDS011;4274;52.012;8.448;2023-06-14T05:45:59;45.67;;;2.90;;
8474;SDS011;4274;52.012;8.448;2023-06-14T05:48:24;46.00;;;3.30;;
8474;SDS011;4274;52.012;8.448;2023-06-14T05:50:50;46.67;;;3.13;;
8474;SDS011;4274;52.012;8.448;2023-06-14T05:53:16;45.70;;;3.00;;
8474;SDS011;4274;52.012;8.448;2023-06-14T05:55:42;47.20;;;3.00;;
8474;SDS011;4274;52.012;8.448;2023-06-14T05:58:07;44.50;;;2.70;;
8474;SDS011;4274;52.012;8.448;2023-06-14T06:00:33;48.33;;;2.67;;
8474;SDS011;4274;52.012;8.448;2023-06-14T06:02:58;50.30;;;3.33;;
8474;SDS011;4274;52.012;8.448;2023-06-14T06:05:25;45.87;;;2.90;;
8474;SDS011;4274;52.012;8.448;2023-06-14T06:07:51;45.77;;;3.10;;
8474;SDS011;4274;52.012;8.448;2023-06-14T06:10:17;46.07;;;2.80;;
8474;SDS011;4274;52.012;8.448;2023-06-14T06:12:43;46.73;;;2.90;;
8474;SDS011;4274;52.012;8.448;2023-06-14T06:15:09;56.60;;;3.17;;
8474;SDS011;4274;52.012;8.448;2023-06-14T06:17:38;48.73;;;3.40;;
8474;SDS011;4274;52.012;8.448;2023-06-14T06:20:04;45.90;;;3.00;;
8474;SDS011;4274;52.012;8.448;2023-06-14T06:22:33;49.10;;;2.70;;
8474;SDS011;4274;52.012;8.448;2023-06-14T06:24:58;48.17;;;2.70;;
8474;SDS011;4274;52.012;8.448;2023-06-14T06:27:24;53.10;;;3.10;;
8474;SDS011;4274;52.012;8.448;2023-06-14T06:29:50;44.90;;;2.70;;
8474;SDS011;4274;52.012;8.448;2023-06-14T06:32:16;52.23;;;2.87;;
8474;SDS011;4274;52.012;8.448;2023-06-14T06:34:42;46.00;;;2.40;;
8474;SDS011;4274;52.012;8.448;2023-06-14T06:37:08;46.80;;;2.40;;
8474;SDS011;4274;52.012;8.448;2023-06-14T06:39:33;53.90;;;2.40;;
8474;SDS011;4274;52.012;8.448;2023-06-14T06:41:59;48.30;;;2.30;;
8474;SDS011;4274;52.012;8.448;2023-06-14T06:44:25;51.73;;;2.60;;
8474;SDS011;4274;52.012;8.448;2023-06-14T06:46:51;48.80;;;2.87;;
8474;SDS011;4274;52.012;8.448;2023-06-14T06:49:16;44.90;;;2.57;;
8474;SDS011;4274;52.012;8.448;2023-06-14T06:51:42;45.00;;;2.33;;
8474;SDS011;4274;52.012;8.448;2023-06-14T06:54:08;44.17;;;2.50;;
8474;SDS011;4274;52.012;8.448;2023-06-14T06:56:34;47.30;;;2.50;;
8474;SDS011;4274;52.012;8.448;2023-06-14T06:59:00;46.27;;;2.67;;
8474;SDS011;4274;52.012;8.448;2023-06-14T07:01:26;46.43;;;2.50;;
8474;SDS011;4274;52.012;8.448;2023-06-14T07:03:54;45.80;;;2.60;;
8474;SDS011;4274;52.012;8.448;2023-06-14T07:06:20;46.00;;;2.47;;
8474;SDS011;4274;52.012;8.448;2023-06-14T07:08:46;44.67;;;2.70;;
8474;SDS011;4274;52.012;8.448;2023-06-14T07:11:14;46.60;;;2.87;;
8474;SDS011;4274;52.012;8.448;2023-06-14T07:13:40;47.07;;;2.57;;
8474;SDS011;4274;52.012;8.448;2023-06-14T07:16:05;45.50;;;2.70;;
8474;SDS011;4274;52.012;8.448;2023-06-14T07:18:31;44.20;;;2.50;;
8474;SDS011;4274;52.012;8.448;2023-06-14T07:20:56;44.80;;;2.63;;
8474;SDS011;4274;52.012;8.448;2023-06-14T07:23:22;44.30;;;2.50;;
8474;SDS011;4274;52.012;8.448;2023-06-14T07:25:48;46.80;;;2.80;;
8474;SDS011;4274;52.012;8.448;2023-06-14T07:28:14;44.60;;;2.60;;
8474;SDS011;4274;52.012;8.448;2023-06-14T07:30:41;58.33;;;3.10;;
8474;SDS011;4274;52.012;8.448;2023-06-14T07:33:06;44.80;;;2.60;;
8474;SDS011;4274;52.012;8.448;2023-06-14T07:35:33;46.00;;;3.07;;
8474;SDS011;4274;52.012;8.448;2023-06-14T07:37:59;46.67;;;3.00;;
8474;SDS011;4274;52.012;8.448;2023-06-14T07:40:24;48.47;;;2.53;;
8474;SDS011;4274;52.012;8.448;2023-06-14T07:42:50;46.10;;;3.60;;
8474;SDS011;4274;52.012;8.448;2023-06-14T07:45:15;44.87;;;2.60;;
8474;SDS011;4274;52.012;8.448;2023-06-14T07:47:41;46.70;;;2.43;;
8474;SDS011;4274;52.012;8.448;2023-06-14T07:50:07;46.07;;;2.53;;
8474;SDS011;4274;52.012;8.448;2023-06-14T07:52:33;48.10;;;3.10;;
8474;SDS011;4274;52.012;8.448;2023-06-14T07:54:59;44.50;;;2.63;;
8474;SDS011;4274;52.012;8.448;2023-06-14T07:57:25;44.70;;;2.83;;
8474;SDS011;4274;52.012;8.448;2023-06-14T07:59:50;46.37;;;2.53;;
8474;SDS011;4274;52.012;8.448;2023-06-14T08:02:16;44.40;;;2.53;;
8474;SDS011;4274;52.012;8.448;2023-06-14T08:04:42;45.43;;;2.50;;
8474;SDS011;4274;52.012;8.448;2023-06-14T08:07:07;47.60;;;2.90;;
8474;SDS011;4274;52.012;8.448;2023-06-14T08:09:35;47.20;;;2.33;;
8474;SDS011;4274;52.012;8.448;2023-06-14T08:12:03;47.20;;;2.67;;
8474;SDS011;4274;52.012;8.448;2023-06-14T08:14:32;49.33;;;2.50;;
8474;SDS011;4274;52.012;8.448;2023-06-14T08:16:58;52.43;;;2.70;;
8474;SDS011;4274;52.012;8.448;2023-06-14T08:19:23;44.57;;;2.57;;
8474;SDS011;4274;52.012;8.448;2023-06-14T08:21:49;45.17;;;2.53;;
8474;SDS011;4274;52.012;8.448;2023-06-14T08:24:15;44.60;;;2.50;;
8474;SDS011;4274;52.012;8.448;2023-06-14T08:26:41;47.20;;;2.87;;
8474;SDS011;4274;52.012;8.448;2023-06-14T08:29:06;47.30;;;2.70;;
8474;SDS011;4274;52.012;8.448;2023-06-14T08:31:33;50.23;;;2.70;;
8474;SDS011;4274;52.012;8.448;2023-06-14T08:33:59;53.40;;;2.77;;
8474;SDS011;4274;52.012;8.448;2023-06-14T08:36:24;44.53;;;2.50;;
8474;SDS011;4274;52.012;8.448;2023-06-14T08:38:50;45.27;;;2.80;;
8474;SDS011;4274;52.012;8.448;2023-06-14T08:41:22;47.93;;;2.73;;
8474;SDS011;4274;52.012;8.448;2023-06-14T08:43:49;47.50;;;2.70;;
8474;SDS011;4274;52.012;8.448;2023-06-14T08:46:17;45.43;;;2.63;;
8474;SDS011;4274;52.012;8.448;2023-06-14T08:48:45;45.70;;;2.93;;
8474;SDS011;4274;52.012;8.448;2023-06-14T08:51:13;48.47;;;2.60;;
8474;SDS011;4274;52.012;8.448;2023-06-14T08:53:41;51.47;;;2.70;;
8474;SDS011;4274;52.012;8.448;2023-06-14T08:56:07;48.30;;;2.77;;
8474;SDS011;4274;52.012;8.448;2023-06-14T08:58:39;52.73;;;3.20;;
8474;SDS011;4274;52.012;8.448;2023-06-14T09:01:09;48.60;;;2.67;;
8474;SDS011;4274;52.012;8.448;2023-06-14T09:03:41;48.40;;;4.50;;
8474;SDS011;4274;52.012;8.448;2023-06-14T09:06:08;44.67;;;2.40;;
8474;SDS011;4274;52.012;8.448;2023-06-14T09:08:39;47.50;;;2.80;;
8474;SDS011;4274;52.012;8.448;2023-06-14T09:11:08;45.20;;;2.50;;
8474;SDS011;4274;52.012;8.448;2023-06-14T09:13:39;44.63;;;2.40;;
8474;SDS011;4274;52.012;8.448;2023-06-14T09:16:06;49.53;;;2.63;;
8474;SDS011;4274;52.012;8.448;2023-06-14T09:18:39;45.23;;;2.30;;
8474;SDS011;4274;52.012;8.448;2023-06-14T09:21:06;50.20;;;2.63;;
8474;SDS011;4274;52.012;8.448;2023-06-14T09:23:45;45.83;;;2.50;;
8474;SDS011;4274;52.012;8.448;2023-06-14T09:26:15;48.90;;;2.50;;
8474;SDS011;4274;52.012;8.448;2023-06-14T09:28:43;47.17;;;2.50;;
8474;SDS011;4274;52.012;8.448;2023-06-14T09:31:11;45.93;;;2.80;;
8474;SDS011;4274;52.012;8.448;2023-06-14T09:33:37;45.10;;;2.37;;
8474;SDS011;4274;52.012;8.448;2023-06-14T09:36:04;47.53;;;2.60;;
8474;SDS011;4274;52.012;8.448;2023-06-14T09:38:34;48.00;;;2.90;;
8474;SDS011;4274;52.012;8.448;2023-06-14T09:41:00;46.63;;;2.50;;
8474;SDS011;4274;52.012;8.448;2023-06-14T09:43:29;47.03;;;2.67;;
8474;SDS011;4274;52.012;8.448;2023-06-14T09:45:54;49.00;;;2.50;;
8474;SDS011;4274;52.012;8.448;2023-06-14T09:48:20;46.30;;;2.87;;
8474;SDS011;4274;52.012;8.448;2023-06-14T09:50:46;46.23;;;2.77;;
8474;SDS011;4274;52.012;8.448;2023-06-14T09:53:13;45.37;;;2.73;;
8474;SDS011;4274;52.012;8.448;2023-06-14T09:55:40;46.67;;;2.80;;
8474;SDS011;4274;52.012;8.448;2023-06-14T09:58:07;45.17;;;2.87;;
8474;SDS011;4274;52.012;8.448;2023-06-14T10:00:35;48.40;;;2.67;;
8474;SDS011;4274;52.012;8.448;2023-06-14T10:03:11;46.20;;;2.73;;
8474;SDS011;4274;52.012;8.448;2023-06-14T10:05:39;47.70;;;2.73;;
8474;SDS011;4274;52.012;8.448;2023-06-14T10:08:08;46.27;;;2.50;;
8474;SDS011;4274;52.012;8.448;2023-06-14T10:10:38;51.23;;;2.70;;
8474;SDS011;4274;52.012;8.448;2023-06-14T10:13:05;45.30;;;2.50;;
8474;SDS011;4274;52.012;8.448;2023-06-14T10:15:38;47.57;;;2.80;;
8474;SDS011;4274;52.012;8.448;2023-06-14T10:18:14;47.10;;;2.77;;
8474;SDS011;4274;52.012;8.448;2023-06-14T10:23:51;46.60;;;2.63;;
8474;SDS011;4274;52.012;8.448;2023-06-14T10:26:19;47.87;;;2.60;;
8474;SDS011;4274;52.012;8.448;2023-06-14T10:28:59;45.37;;;2.80;;
8474;SDS011;4274;52.012;8.448;2023-06-14T10:31:48;54.40;;;2.70;;
8474;SDS011;4274;52.012;8.448;2023-06-14T10:34:23;46.13;;;2.40;;
8474;SDS011;4274;52.012;8.448;2023-06-14T10:37:06;44.47;;;2.10;;
8474;SDS011;4274;52.012;8.448;2023-06-14T10:39:39;45.77;;;2.67;;
8474;SDS011;4274;52.012;8.448;2023-06-14T10:42:06;45.37;;;2.47;;
8474;SDS011;4274;52.012;8.448;2023-06-14T10:44:33;48.33;;;3.00;;
8474;SDS011;4274;52.012;8.448;2023-06-14T10:47:05;45.47;;;2.40;;
8474;SDS011;4274;52.012;8.448;2023-06-14T10:49:38;45.17;;;2.40;;
8474;SDS011;4274;52.012;8.448;2023-06-14T10:52:10;46.10;;;2.60;;
8474;SDS011;4274;52.012;8.448;2023-06-14T10:57:38;46.10;;;2.53;;
8474;SDS011;4274;52.012;8.448;2023-06-14T11:00:05;48.30;;;2.30;;
8474;SDS011;4274;52.012;8.448;2023-06-14T11:11:16;46.07;;;2.43;;
8474;SDS011;4274;52.012;8.448;2023-06-14T11:13:44;49.13;;;2.90;;
8474;SDS011;4274;52.012;8.448;2023-06-14T11:16:13;46.10;;;2.40;;
8474;SDS011;4274;52.012;8.448;2023-06-14T11:18:40;46.77;;;2.53;;
8474;SDS011;4274;52.012;8.448;2023-06-14T11:21:07;47.47;;;2.50;;
8474;SDS011;4274;52.012;8.448;2023-06-14T11:23:34;46.70;;;2.20;;
8474;SDS011;4274;52.012;8.448;2023-06-14T11:26:00;49.63;;;2.60;;
8474;SDS011;4274;52.012;8.448;2023-06-14T11:28:35;46.30;;;2.50;;
8474;SDS011;4274;52.012;8.448;2023-06-14T11:31:04;54.20;;;2.57;;
8474;SDS011;4274;52.012;8.448;2023-06-14T11:33:30;59.57;;;2.73;;
8474;SDS011;4274;52.012;8.448;2023-06-14T11:35:56;52.13;;;2.50;;
8474;SDS011;4274;52.012;8.448;2023-06-14T11:38:21;50.23;;;2.53;;
8474;SDS011;4274;52.012;8.448;2023-06-14T11:40:47;47.90;;;2.60;;
8474;SDS011;4274;52.012;8.448;2023-06-14T11:43:12;49.13;;;2.50;;
8474;SDS011;4274;52.012;8.448;2023-06-14T11:45:39;45.43;;;2.37;;
8474;SDS011;4274;52.012;8.448;2023-06-14T11:48:04;46.33;;;2.50;;
8474;SDS011;4274;52.012;8.448;2023-06-14T11:50:31;46.07;;;2.20;;
8474;SDS011;4274;52.012;8.448;2023-06-14T11:53:01;45.50;;;2.20;;
8474;SDS011;4274;52.012;8.448;2023-06-14T11:55:32;46.10;;;2.50;;
8474;SDS011;4274;52.012;8.448;2023-06-14T11:58:01;46.97;;;2.27;;
8474;SDS011;4274;52.012;8.448;2023-06-14T12:00:26;49.33;;;2.17;;
8474;SDS011;4274;52.012;8.448;2023-06-14T12:02:53;47.93;;;2.40;;
8474;SDS011;4274;52.012;8.448;2023-06-14T12:05:21;49.13;;;2.70;;
8474;SDS011;4274;52.012;8.448;2023-06-14T12:07:46;48.80;;;2.40;;
8474;SDS011;4274;52.012;8.448;2023-06-14T12:10:13;49.30;;;2.50;;
8474;SDS011;4274;52.012;8.448;2023-06-14T12:12:40;45.90;;;2.30;;
8474;SDS011;4274;52.012;8.448;2023-06-14T12:15:07;47.07;;;2.47;;
8474;SDS011;4274;52.012;8.448;2023-06-14T12:17:37;46.33;;;2.73;;
8474;SDS011;4274;52.012;8.448;2023-06-14T12:20:13;47.27;;;2.40;;
8474;SDS011;4274;52.012;8.448;2023-06-14T12:22:50;46.27;;;2.30;;
8474;SDS011;4274;52.012;8.448;2023-06-14T12:25:31;46.30;;;2.47;;
8474;SDS011;4274;52.012;8.448;2023-06-14T12:27:58;54.20;;;2.30;;
8474;SDS011;4274;52.012;8.448;2023-06-14T12:30:25;56.13;;;2.93;;
8474;SDS011;4274;52.012;8.448;2023-06-14T12:32:50;49.50;;;2.63;;
8474;SDS011;4274;52.012;8.448;2023-06-14T12:35:16;48.50;;;2.40;;
8474;SDS011;4274;52.012;8.448;2023-06-14T12:37:43;46.17;;;2.50;;
8474;SDS011;4274;52.012;8.448;2023-06-14T12:40:10;46.20;;;2.20;;
8474;SDS011;4274;52.012;8.448;2023-06-14T12:42:36;46.13;;;2.33;;
8474;SDS011;4274;52.012;8.448;2023-06-14T12:45:02;47.50;;;2.57;;
8474;SDS011;4274;52.012;8.448;2023-06-14T12:47:28;46.20;;;2.30;;
8474;SDS011;4274;52.012;8.448;2023-06-14T12:49:53;46.67;;;2.43;;
8474;SDS011;4274;52.012;8.448;2023-06-14T12:52:19;54.50;;;2.73;;
8474;SDS011;4274;52.012;8.448;2023-06-14T12:54:44;46.53;;;2.57;;
8474;SDS011;4274;52.012;8.448;2023-06-14T12:57:10;45.73;;;2.40;;
8474;SDS011;4274;52.012;8.448;2023-06-14T12:59:36;50.47;;;2.33;;
8474;SDS011;4274;52.012;8.448;2023-06-14T13:02:14;47.30;;;2.50;;
8474;SDS011;4274;52.012;8.448;2023-06-14T13:04:41;46.03;;;2.70;;
8474;SDS011;4274;52.012;8.448;2023-06-14T13:07:07;48.33;;;2.50;;
8474;SDS011;4274;52.012;8.448;2023-06-14T13:09:32;48.80;;;2.40;;
8474;SDS011;4274;52.012;8.448;2023-06-14T13:11:58;45.93;;;2.30;;
8474;SDS011;4274;52.012;8.448;2023-06-14T13:14:24;47.77;;;2.77;;
8474;SDS011;4274;52.012;8.448;2023-06-14T13:16:49;45.37;;;2.10;;
8474;SDS011;4274;52.012;8.448;2023-06-14T13:19:15;47.30;;;2.20;;
8474;SDS011;4274;52.012;8.448;2023-06-14T13:21:40;48.07;;;2.50;;
8474;SDS011;4274;52.012;8.448;2023-06-14T13:24:06;48.13;;;2.30;;
8474;SDS011;4274;52.012;8.448;2023-06-14T13:26:32;46.60;;;2.30;;
8474;SDS011;4274;52.012;8.448;2023-06-14T13:28:58;48.60;;;2.47;;
8474;SDS011;4274;52.012;8.448;2023-06-14T13:31:23;48.43;;;2.93;;
8474;SDS011;4274;52.012;8.448;2023-06-14T13:33:49;49.00;;;2.80;;
8474;SDS011;4274;52.012;8.448;2023-06-14T13:36:15;47.40;;;2.93;;
8474;SDS011;4274;52.012;8.448;2023-06-14T13:38:41;54.30;;;2.33;;
8474;SDS011;4274;52.012;8.448;2023-06-14T13:41:06;47.03;;;2.37;;
8474;SDS011;4274;52.012;8.448;2023-06-14T13:43:32;46.70;;;2.70;;
8474;SDS011;4274;52.012;8.448;2023-06-14T13:45:57;47.07;;;2.20;;
8474;SDS011;4274;52.012;8.448;2023-06-14T13:48:23;45.60;;;2.10;;
8474;SDS011;4274;52.012;8.448;2023-06-14T13:50:49;47.00;;;2.77;;
8474;SDS011;4274;52.012;8.448;2023-06-14T13:53:15;45.70;;;2.57;;
8474;SDS011;4274;52.012;8.448;2023-06-14T13:55:40;45.80;;;2.43;;
8474;SDS011;4274;52.012;8.448;2023-06-14T13:58:06;46.30;;;2.47;;
8474;SDS011;4274;52.012;8.448;2023-06-14T14:00:31;48.53;;;2.80;;
8474;SDS011;4274;52.012;8.448;2023-06-14T14:02:57;46.90;;;2.70;;
8474;SDS011;4274;52.012;8.448;2023-06-14T14:05:24;46.80;;;2.70;;
8474;SDS011;4274;52.012;8.448;2023-06-14T14:07:54;46.07;;;2.70;;
8474;SDS011;4274;52.012;8.448;2023-06-14T14:10:20;46.20;;;2.50;;
8474;SDS011;4274;52.012;8.448;2023-06-14T14:12:46;45.77;;;2.60;;
8474;SDS011;4274;52.012;8.448;2023-06-14T14:15:12;47.30;;;2.43;;
8474;SDS011;4274;52.012;8.448;2023-06-14T14:17:39;46.73;;;2.27;;
8474;SDS011;4274;52.012;8.448;2023-06-14T14:20:05;46.47;;;2.60;;
8474;SDS011;4274;52.012;8.448;2023-06-14T14:22:31;50.00;;;2.70;;
8474;SDS011;4274;52.012;8.448;2023-06-14T14:27:25;48.50;;;2.90;;
8474;SDS011;4274;52.012;8.448;2023-06-14T14:29:50;50.37;;;3.20;;
8474;SDS011;4274;52.012;8.448;2023-06-14T14:32:16;49.70;;;3.00;;
8474;SDS011;4274;52.012;8.448;2023-06-14T14:34:42;48.00;;;3.13;;
8474;SDS011;4274;52.012;8.448;2023-06-14T14:37:07;49.63;;;3.20;;
8474;SDS011;4274;52.012;8.448;2023-06-14T14:39:33;46.50;;;2.83;;
8474;SDS011;4274;52.012;8.448;2023-06-14T14:41:59;50.13;;;2.87;;
8474;SDS011;4274;52.012;8.448;2023-06-14T14:44:25;49.77;;;3.13;;
8474;SDS011;4274;52.012;8.448;2023-06-14T14:46:50;51.30;;;2.77;;
8474;SDS011;4274;52.012;8.448;2023-06-14T14:49:16;45.97;;;2.70;;
8474;SDS011;4274;52.012;8.448;2023-06-14T14:51:41;47.80;;;2.70;;
8474;SDS011;4274;52.012;8.448;2023-06-14T14:54:07;49.00;;;2.97;;
8474;SDS011;4274;52.012;8.448;2023-06-14T14:56:32;48.97;;;3.40;;
8474;SDS011;4274;52.012;8.448;2023-06-14T14:59:00;48.23;;;3.03;;
8474;SDS011;4274;52.012;8.448;2023-06-14T15:01:25;48.97;;;3.87;;
8474;SDS011;4274;52.012;8.448;2023-06-14T15:03:51;46.50;;;3.13;;
8474;SDS011;4274;52.012;8.448;2023-06-14T15:06:17;45.97;;;2.53;;
8474;SDS011;4274;52.012;8.448;2023-06-14T15:08:43;47.97;;;2.90;;
8474;SDS011;4274;52.012;8.448;2023-06-14T15:11:08;46.30;;;2.90;;
8474;SDS011;4274;52.012;8.448;2023-06-14T15:13:34;46.33;;;2.80;;
8474;SDS011;4274;52.012;8.448;2023-06-14T15:16:00;46.43;;;3.00;;
8474;SDS011;4274;52.012;8.448;2023-06-14T15:18:26;55.27;;;3.10;;
8474;SDS011;4274;52.012;8.448;2023-06-14T15:20:51;50.67;;;3.20;;
8474;SDS011;4274;52.012;8.448;2023-06-14T15:23:17;52.63;;;3.10;;